Aérodrome :
LOGIN :

S'inscrire | Disclaimer

   EN    FR    IT 

 










Légende :    VFR   VFR Marginal   IFR   IFR Intensif   IFR Très Intensif
Visi : 
Plafond : 
>= 8 km
>= 3000ft
5 à 8 km
1000 à 3000 ft
1500m à 5 km
500 à 1000 ft
800 à 1500m
200 à 500 ft
< 800m
< 200 ft
Symboles :   Orages  Brouillard  Fortes neiges  Fortes précipitations  Vent > 20 kt
SIGMETs :   Divers  Orages  Givrage  Turbulence  Onde Orograph.  Cendres Volcan.







- Altitude de l'aérodrome : 308 ft
- Code IATA : ATH


LGAV - Eleftherios Venizelos Int.

DERNIER METAR :
  • 190350Z 00000KT 9999 FEW030 01/M00 Q1022 NOSIG

METARs EXPIRÉS :
  • 190320Z 29002KT 9999 FEW030 02/01 Q1022 NOSIG
  • 190250Z VRB02KT 9999 FEW030 02/01 Q1022 NOSIG
  • 190220Z 30004KT 9999 FEW030 03/02 Q1022 NOSIG
  • 190150Z VRB01KT 9999 FEW030 01/00 Q1023 NOSIG
  • 190120Z VRB02KT 9999 FEW030 01/00 Q1023 NOSIG

TAF TAF LGAV
Valide du 19 à 00h jusqu'au 20 à 00h UTC


182300Z 1900/1924 36010KT 9999 FEW020
PROB30 1900/1906 5000 BR SCT010
Pas de NOTAMs connus pour ce terrain.



MET'MAP, la Météo Aéronautique d'un coup d'oeil ! - Copyright ORBIFLY Décembre 2007 - Disclaimer

ORBIFLY MET'MAP TEAM :

Programmation & Développement : Alexandra Zaïnal
Conception & Développement : Baudouin d'Aumeries
Co-Programmation & Développement : Marc-Olivier Méhu
Soutien technique & logistique : Manuel Goepfert

Contact : metmap@orbifly.com




SOURCES & CREDITS :

   NOAA